createdAt,value
2019-03-11T00:00:02.305Z,69.60
2019-03-11T00:01:02.204Z,70.55
2019-03-11T00:02:02.107Z,75.38
2019-03-11T00:03:02.019Z,70.36
2019-03-11T00:04:01.903Z,69.41
2019-03-11T00:05:01.797Z,68.56
2019-03-11T00:06:01.699Z,67.43
2019-03-11T00:07:01.593Z,66.63
2019-03-11T00:08:01.507Z,70.04
2019-03-11T00:09:01.391Z,70.32
2019-03-11T00:10:01.288Z,73.54
2019-03-11T00:11:01.193Z,77.89
2019-03-11T00:12:01.081Z,78.50
2019-03-11T00:13:01.007Z,77.94
2019-03-11T00:14:00.880Z,78.41
2019-03-11T00:15:00.780Z,80.30
2019-03-11T00:16:00.676Z,81.92
2019-03-11T00:17:00.573Z,82.86
2019-03-11T00:18:00.504Z,83.62
2019-03-11T00:19:00.370Z,84.56
2019-03-11T00:20:00.345Z,85.89
2019-03-11T00:21:00.168Z,85.89
2019-03-11T00:22:00.073Z,85.61
2019-03-11T00:22:59.976Z,86.18
2019-03-11T00:23:59.859Z,88.73
2019-03-11T00:24:59.757Z,88.17
2019-03-11T00:25:59.652Z,87.88
2019-03-11T00:26:59.550Z,87.59
2019-03-11T00:27:59.475Z,88.07
2019-03-11T00:28:59.353Z,87.02
2019-03-11T00:29:59.245Z,88.26
2019-03-11T00:30:59.145Z,88.45
2019-03-11T00:31:59.139Z,88.07
2019-03-11T00:32:58.955Z,88.07
2019-03-11T00:33:58.835Z,88.17
2019-03-11T00:34:58.739Z,88.07
2019-03-11T00:35:58.631Z,87.78
2019-03-11T00:36:59.240Z,87.78
2019-03-11T00:37:58.442Z,87.88
2019-03-11T00:38:58.327Z,87.69
2019-03-11T00:39:58.223Z,87.88
2019-03-11T00:40:58.120Z,88.64
2019-03-11T00:41:58.025Z,88.73
2019-03-11T00:42:57.916Z,88.64
2019-03-11T00:43:57.829Z,88.17
2019-03-11T00:44:57.712Z,87.59
2019-03-11T00:45:57.739Z,87.69
2019-03-11T00:46:57.506Z,88.45
2019-03-11T00:48:01.920Z,88.26
2019-03-11T00:48:57.321Z,88.54
2019-03-11T00:49:57.201Z,87.69
2019-03-11T00:50:57.098Z,88.45
2019-03-11T00:51:56.995Z,88.35
2019-03-11T00:52:57.002Z,88.26
2019-03-11T00:53:56.810Z,88.64
2019-03-11T00:54:56.691Z,88.26
2019-03-11T00:55:56.588Z,88.45
2019-03-11T00:56:56.486Z,88.26
2019-03-11T00:57:56.385Z,88.45
2019-03-11T00:58:56.302Z,88.45
2019-03-11T00:59:56.279Z,87.78
2019-03-11T01:00:56.076Z,88.17
2019-03-11T01:01:55.977Z,88.35
2019-03-11T01:02:55.881Z,88.64
2019-03-11T01:03:55.791Z,87.88
2019-03-11T01:04:55.668Z,88.07
2019-03-11T01:05:55.575Z,87.59
2019-03-11T01:06:55.570Z,87.59
2019-03-11T01:07:55.361Z,86.55
2019-03-11T01:08:55.298Z,87.02
2019-03-11T01:09:55.160Z,87.08
2019-03-11T01:10:55.059Z,86.32
2019-03-11T01:11:54.955Z,85.66
2019-03-11T01:12:54.856Z,84.14
2019-03-11T01:13:54.863Z,83.20
2019-03-11T01:14:54.654Z,82.44
2019-03-11T01:15:54.551Z,81.59
2019-03-11T01:16:54.444Z,80.45
2019-03-11T01:17:54.343Z,79.98
2019-03-11T01:18:54.260Z,78.94
2019-03-11T01:19:54.142Z,77.70
2019-03-11T01:20:54.147Z,77.61
2019-03-11T01:21:53.936Z,76.76
2019-03-11T01:22:53.832Z,75.91
2019-03-11T01:23:53.750Z,75.91
2019-03-11T01:24:53.626Z,76.10
2019-03-11T01:25:53.528Z,76.10
2019-03-11T01:26:53.425Z,76.19
2019-03-11T01:27:53.431Z,75.05
2019-03-11T01:28:53.239Z,75.15
2019-03-11T01:29:53.124Z,75.34
2019-03-11T01:30:53.016Z,75.43
2019-03-11T01:31:52.910Z,75.59
2019-03-11T01:32:52.827Z,75.12
2019-03-11T01:33:52.722Z,75.21
2019-03-11T01:34:52.706Z,75.43
2019-03-11T01:35:52.504Z,75.12
2019-03-11T01:36:52.398Z,75.31
2019-03-11T01:37:52.298Z,75.40
2019-03-11T01:38:52.210Z,75.31
2019-03-11T01:39:52.103Z,75.40
2019-03-11T01:40:51.989Z,75.02
2019-03-11T01:41:52.011Z,75.12
2019-03-11T01:42:52.086Z,75.21
2019-03-11T01:43:51.703Z,75.49
2019-03-11T01:44:51.578Z,75.40
2019-03-11T01:45:51.476Z,75.12
2019-03-11T01:46:51.371Z,75.12
2019-03-11T01:47:51.267Z,75.40
2019-03-11T01:48:51.284Z,75.31
2019-03-11T01:49:51.063Z,75.21
2019-03-11T01:50:50.962Z,75.31
2019-03-11T01:51:50.861Z,75.31
2019-03-11T01:52:50.758Z,75.31
2019-03-11T01:53:50.668Z,75.02
2019-03-11T01:54:50.660Z,75.21
2019-03-11T01:55:50.465Z,75.31
2019-03-11T01:56:50.350Z,75.31
2019-03-11T01:57:50.241Z,75.49
2019-03-11T01:58:50.152Z,75.31
2019-03-11T01:59:50.037Z,75.40
2019-03-11T02:00:49.938Z,76.34
2019-03-11T02:01:49.829Z,75.49
2019-03-11T02:02:49.840Z,75.31
2019-03-11T02:03:49.640Z,76.15
2019-03-11T02:04:49.522Z,75.96
2019-03-11T02:05:49.418Z,76.15
2019-03-11T02:06:49.316Z,76.34
2019-03-11T02:07:49.216Z,75.96
2019-03-11T02:08:49.129Z,75.96
2019-03-11T02:09:49.024Z,75.96
2019-03-11T02:10:48.902Z,76.15
2019-03-11T02:11:48.806Z,76.06
2019-03-11T02:12:48.698Z,75.78
2019-03-11T02:13:48.612Z,76.15
2019-03-11T02:14:48.492Z,75.68
2019-03-11T02:15:48.390Z,75.96
2019-03-11T02:16:48.288Z,76.06
2019-03-11T02:17:48.188Z,76.06
2019-03-11T02:18:48.101Z,76.06
2019-03-11T02:19:47.982Z,75.78
2019-03-11T02:20:47.876Z,75.78
2019-03-11T02:21:47.775Z,76.15
2019-03-11T02:22:47.680Z,75.87
2019-03-11T02:23:47.570Z,76.15
2019-03-11T02:24:47.481Z,75.78
2019-03-11T02:25:47.366Z,75.96
2019-03-11T02:26:47.271Z,75.96
2019-03-11T02:27:47.158Z,76.06
2019-03-11T02:28:47.055Z,75.96
2019-03-11T02:29:46.967Z,76.34
2019-03-11T02:30:46.846Z,76.25
2019-03-11T02:31:46.744Z,75.96
2019-03-11T02:32:46.640Z,75.87
2019-03-11T02:33:46.547Z,76.06
2019-03-11T02:34:46.499Z,76.25
2019-03-11T02:35:46.338Z,76.63
2019-03-11T02:36:46.228Z,76.15
2019-03-11T02:37:46.127Z,76.25
2019-03-11T02:38:46.023Z,76.34
2019-03-11T02:39:45.938Z,75.78
2019-03-11T02:40:45.822Z,76.63
2019-03-11T02:41:45.717Z,75.96
2019-03-11T02:42:45.623Z,76.06
2019-03-11T02:43:45.509Z,76.76
2019-03-11T02:44:45.422Z,76.53
2019-03-11T02:45:45.305Z,76.10
2019-03-11T02:46:45.201Z,76.00
2019-03-11T02:47:45.096Z,76.06
2019-03-11T02:48:44.996Z,76.29
2019-03-11T02:49:44.914Z,76.19
2019-03-11T02:50:44.789Z,76.34
2019-03-11T02:51:44.686Z,76.38
2019-03-11T02:52:44.583Z,76.76
2019-03-11T02:53:44.488Z,76.76
2019-03-11T02:54:44.401Z,76.57
2019-03-11T02:55:44.281Z,76.57
2019-03-11T02:56:44.175Z,76.67
2019-03-11T02:57:44.076Z,76.57
2019-03-11T02:58:43.969Z,76.76
2019-03-11T02:59:43.885Z,76.29
2019-03-11T03:00:43.768Z,77.20
2019-03-11T03:01:43.659Z,76.25
2019-03-11T03:02:43.559Z,76.34
2019-03-11T03:03:43.452Z,76.48
2019-03-11T03:04:43.374Z,77.29
2019-03-11T03:05:43.250Z,76.63
2019-03-11T03:06:43.145Z,77.20
2019-03-11T03:07:43.048Z,77.29
2019-03-11T03:08:42.940Z,76.44
2019-03-11T03:09:42.862Z,76.63
2019-03-11T03:10:42.738Z,77.10
2019-03-11T03:11:42.634Z,77.10
2019-03-11T03:12:42.535Z,76.15
2019-03-11T03:13:42.426Z,77.01
2019-03-11T03:14:42.381Z,77.20
2019-03-11T03:15:42.232Z,77.01
2019-03-11T03:16:42.122Z,77.01
2019-03-11T03:17:42.018Z,77.01
2019-03-11T03:18:41.980Z,77.10
2019-03-11T03:19:41.825Z,77.01
2019-03-11T03:20:41.711Z,77.01
2019-03-11T03:21:41.606Z,76.82
2019-03-11T03:22:41.501Z,77.01
2019-03-11T03:23:41.415Z,76.72
2019-03-11T03:24:41.318Z,77.51
2019-03-11T03:25:41.301Z,76.86
2019-03-11T03:26:41.092Z,77.10
2019-03-11T03:27:41.005Z,77.14
2019-03-11T03:28:40.887Z,76.95
2019-03-11T03:29:40.805Z,77.23
2019-03-11T03:30:40.703Z,77.04
2019-03-11T03:31:40.584Z,77.04
2019-03-11T03:32:40.579Z,77.04
2019-03-11T03:33:40.371Z,77.04
2019-03-11T03:34:40.285Z,77.23
2019-03-11T03:35:40.180Z,77.14
2019-03-11T03:36:40.076Z,76.95
2019-03-11T03:37:39.962Z,76.76
2019-03-11T03:38:39.861Z,77.14
2019-03-11T03:39:39.876Z,76.95
2019-03-11T03:40:39.656Z,77.04
2019-03-11T03:41:39.550Z,76.86
2019-03-11T03:42:39.487Z,77.04
2019-03-11T03:43:39.344Z,76.95
2019-03-11T03:44:39.256Z,77.04
2019-03-11T03:45:39.150Z,76.76
2019-03-11T03:46:39.141Z,77.33
2019-03-11T03:47:38.933Z,77.23
2019-03-11T03:48:38.924Z,76.86
2019-03-11T03:49:38.745Z,77.14
2019-03-11T03:50:38.641Z,77.23
2019-03-11T03:51:38.541Z,76.76
2019-03-11T03:52:38.419Z,76.67
2019-03-11T03:53:38.427Z,76.86
2019-03-11T03:54:38.236Z,77.04
2019-03-11T03:55:38.115Z,77.23
2019-03-11T03:56:38.020Z,77.14
2019-03-11T03:57:37.907Z,77.14
2019-03-11T03:58:37.804Z,76.95
2019-03-11T03:59:37.717Z,77.23
2019-03-11T04:00:37.717Z,76.95
2019-03-11T04:01:37.500Z,77.14
2019-03-11T04:02:37.395Z,77.04
2019-03-11T04:03:37.304Z,76.95
2019-03-11T04:04:37.223Z,76.86
2019-03-11T04:05:37.125Z,77.33
2019-03-11T04:06:36.985Z,77.42
2019-03-11T04:07:36.987Z,77.04
2019-03-11T04:08:36.789Z,77.23
2019-03-11T04:09:36.680Z,77.04
2019-03-11T04:10:36.593Z,76.95
2019-03-11T04:11:36.473Z,77.23
2019-03-11T04:12:36.371Z,76.86
2019-03-11T04:13:36.326Z,76.86
2019-03-11T04:14:36.275Z,76.95
2019-03-11T04:15:36.082Z,76.95
2019-03-11T04:16:35.970Z,77.23
2019-03-11T04:17:35.864Z,76.86
2019-03-11T04:18:35.761Z,77.33
2019-03-11T04:19:35.659Z,77.14
2019-03-11T04:20:35.567Z,76.86
2019-03-11T04:21:35.559Z,76.86
2019-03-11T04:22:35.345Z,77.04
2019-03-11T04:23:35.245Z,77.04
2019-03-11T04:24:35.144Z,76.67
2019-03-11T04:25:35.058Z,77.33
2019-03-11T04:26:34.949Z,77.23
2019-03-11T04:27:34.847Z,77.14
2019-03-11T04:28:34.842Z,77.23
2019-03-11T04:29:34.634Z,76.95
2019-03-11T04:30:34.544Z,77.23
2019-03-11T04:31:34.426Z,77.23
2019-03-11T04:32:34.329Z,76.95
2019-03-11T04:33:34.222Z,77.23
2019-03-11T04:34:36.136Z,76.86
2019-03-11T04:35:34.140Z,77.14
2019-03-11T04:36:33.918Z,77.14
2019-03-11T04:37:33.811Z,77.70
2019-03-11T04:38:33.726Z,76.67
2019-03-11T04:39:33.607Z,77.23
2019-03-11T04:40:33.522Z,77.23
2019-03-11T04:41:33.530Z,77.14
2019-03-11T04:42:33.304Z,77.23
2019-03-11T04:43:33.197Z,77.14
2019-03-11T04:44:33.096Z,77.04
2019-03-11T04:45:33.014Z,76.95
2019-03-11T04:46:32.890Z,76.67
2019-03-11T04:47:32.794Z,77.23
2019-03-11T04:48:32.685Z,77.04
2019-03-11T04:49:32.691Z,77.14
2019-03-11T04:50:32.499Z,76.95
2019-03-11T04:51:32.383Z,77.23
2019-03-11T04:52:32.277Z,77.14
2019-03-11T04:53:32.177Z,76.48
2019-03-11T04:54:32.072Z,77.04
2019-03-11T04:55:32.089Z,77.04
2019-03-11T04:56:31.866Z,77.14
2019-03-11T04:57:31.764Z,76.95
2019-03-11T04:58:31.666Z,77.23
2019-03-11T04:59:31.560Z,77.04
2019-03-11T05:00:31.476Z,76.67
2019-03-11T05:01:31.357Z,77.04
2019-03-11T05:02:31.254Z,76.57
2019-03-11T05:03:31.152Z,77.23
2019-03-11T05:04:31.050Z,76.38
2019-03-11T05:05:30.963Z,77.04
2019-03-11T05:06:30.845Z,76.86
2019-03-11T05:07:30.742Z,77.04
2019-03-11T05:08:30.643Z,77.04
2019-03-11T05:09:30.541Z,76.95
2019-03-11T05:10:30.453Z,77.23
2019-03-11T05:11:30.332Z,77.14
2019-03-11T05:12:30.229Z,77.23
2019-03-11T05:13:30.138Z,77.04
2019-03-11T05:14:30.024Z,76.95
2019-03-11T05:15:29.978Z,77.23
2019-03-11T05:16:29.826Z,76.76
2019-03-11T05:17:29.720Z,76.67
2019-03-11T05:18:29.618Z,76.95
2019-03-11T05:19:29.512Z,75.34
2019-03-11T05:20:29.426Z,75.12
2019-03-11T05:21:29.308Z,73.79
2019-03-11T05:22:29.206Z,73.13
2019-03-11T05:23:29.104Z,72.56
2019-03-11T05:24:29.024Z,71.33
2019-03-11T05:25:28.941Z,69.44
2019-03-11T05:26:28.797Z,67.55
2019-03-11T05:27:28.693Z,64.23
2019-03-11T05:28:28.593Z,61.49
2019-03-11T05:29:28.490Z,59.03
2019-03-11T05:30:28.402Z,56.20
2019-03-11T05:31:28.572Z,53.55
2019-03-11T05:32:28.182Z,51.93
2019-03-11T05:33:28.083Z,50.99
2019-03-11T05:34:27.980Z,49.85
2019-03-11T05:35:27.896Z,48.63
2019-03-11T05:36:27.778Z,47.68
2019-03-11T05:37:27.672Z,47.11
2019-03-11T05:38:27.567Z,46.83
2019-03-11T05:39:27.465Z,45.79
2019-03-11T05:40:27.386Z,45.69
2019-03-11T05:41:27.264Z,44.18
2019-03-11T05:42:27.157Z,43.42
2019-03-11T05:43:27.070Z,43.33
2019-03-11T05:44:26.956Z,42.66
2019-03-11T05:45:26.867Z,42.76
2019-03-11T05:46:26.751Z,42.85
2019-03-11T05:47:26.649Z,42.76
2019-03-11T05:48:26.544Z,43.23
2019-03-11T05:49:26.442Z,43.14
2019-03-11T05:50:26.360Z,43.04
2019-03-11T05:51:31.475Z,42.95
2019-03-11T05:52:26.144Z,43.04
2019-03-11T05:53:26.150Z,43.52
2019-03-11T05:54:25.932Z,44.56
2019-03-11T05:55:25.834Z,45.31
2019-03-11T05:56:25.746Z,46.45
2019-03-11T05:57:25.625Z,46.45
2019-03-11T05:58:25.520Z,47.39
2019-03-11T05:59:25.540Z,48.72
2019-03-11T06:00:25.321Z,50.33
2019-03-11T06:01:25.229Z,50.99
2019-03-11T06:02:25.110Z,51.75
2019-03-11T06:03:25.013Z,52.31
2019-03-11T06:04:24.906Z,53.45
2019-03-11T06:05:24.807Z,53.83
2019-03-11T06:06:24.719Z,54.11
2019-03-11T06:07:24.605Z,53.64
2019-03-11T06:08:24.498Z,53.92
2019-03-11T06:09:24.393Z,54.02
2019-03-11T06:10:24.291Z,52.98
2019-03-11T06:11:24.206Z,53.17
2019-03-11T06:12:24.085Z,53.26
2019-03-11T06:13:24.091Z,53.26
2019-03-11T06:14:23.880Z,52.88
2019-03-11T06:15:23.787Z,53.26
2019-03-11T06:16:23.692Z,53.36
2019-03-11T06:17:23.574Z,53.07
2019-03-11T06:18:23.473Z,53.09
2019-03-11T06:19:23.368Z,52.69
2019-03-11T06:20:23.273Z,53.26
2019-03-11T06:21:23.182Z,52.60
2019-03-11T06:22:23.060Z,52.03
2019-03-11T06:23:22.957Z,51.65
2019-03-11T06:24:22.856Z,51.93
2019-03-11T06:25:22.760Z,52.22
2019-03-11T06:26:22.667Z,52.03
2019-03-11T06:27:22.663Z,51.28
2019-03-11T06:28:22.445Z,51.18
2019-03-11T06:29:30.094Z,50.61
2019-03-11T06:30:22.244Z,50.63
2019-03-11T06:31:22.154Z,49.95
2019-03-11T06:32:22.041Z,49.19
2019-03-11T06:33:21.936Z,48.82
2019-03-11T06:34:21.831Z,47.68
2019-03-11T06:35:21.728Z,47.11
2019-03-11T06:36:21.661Z,46.83
2019-03-11T06:37:21.523Z,45.69
2019-03-11T06:38:21.421Z,45.22
2019-03-11T06:39:21.323Z,44.74
2019-03-11T06:40:21.218Z,44.27
2019-03-11T06:41:21.234Z,44.37
2019-03-11T06:42:21.015Z,44.46
2019-03-11T06:43:20.969Z,44.74
2019-03-11T06:44:20.806Z,43.61
2019-03-11T06:45:20.703Z,43.23
2019-03-11T06:46:20.628Z,43.33
2019-03-11T06:47:20.504Z,42.95
2019-03-11T06:48:20.494Z,42.57
2019-03-11T06:49:20.295Z,42.38
2019-03-11T06:50:20.191Z,41.15
2019-03-11T06:51:20.105Z,40.68
2019-03-11T06:52:19.990Z,39.73
2019-03-11T06:53:19.886Z,39.45
2019-03-11T06:54:19.781Z,38.31
2019-03-11T06:55:19.781Z,37.84
2019-03-11T06:56:19.599Z,37.74
2019-03-11T06:57:19.487Z,37.46
2019-03-11T06:58:19.375Z,37.18
2019-03-11T06:59:19.270Z,37.08
2019-03-11T07:00:19.167Z,37.27
2019-03-11T07:01:19.082Z,37.18
2019-03-11T07:02:19.068Z,37.74
2019-03-11T07:03:18.860Z,37.84
2019-03-11T07:04:18.766Z,38.98
2019-03-11T07:05:20.942Z,39.92
2019-03-11T07:06:18.580Z,40.96
2019-03-11T07:07:18.455Z,41.53
2019-03-11T07:08:18.347Z,42.57
2019-03-11T07:09:18.360Z,43.14
2019-03-11T07:10:18.143Z,43.99
2019-03-11T07:11:18.057Z,44.18
2019-03-11T07:12:17.939Z,45.60
2019-03-11T07:13:17.838Z,45.69
2019-03-11T07:14:17.733Z,45.60
2019-03-11T07:15:17.628Z,45.69
2019-03-11T07:16:17.641Z,46.83
2019-03-11T07:17:17.429Z,47.68
2019-03-11T07:18:17.322Z,48.82
2019-03-11T07:19:17.223Z,49.57
2019-03-11T07:20:17.122Z,49.57
2019-03-11T07:21:17.031Z,50.42
2019-03-11T07:22:16.936Z,51.84
2019-03-11T07:23:16.928Z,52.31
2019-03-11T07:24:16.710Z,52.98
2019-03-11T07:25:16.610Z,54.21
2019-03-11T07:26:16.518Z,54.68
2019-03-11T07:27:16.407Z,55.44
2019-03-11T07:28:16.298Z,55.53
2019-03-11T07:29:16.196Z,56.67
2019-03-11T07:30:16.199Z,56.95
2019-03-11T07:31:16.008Z,57.14
2019-03-11T07:32:15.888Z,57.14
2019-03-11T07:33:15.788Z,57.33
2019-03-11T07:34:15.683Z,57.90
2019-03-11T07:35:15.579Z,59.06
2019-03-11T07:36:15.482Z,61.24
2019-03-11T07:37:15.606Z,61.43
2019-03-11T07:38:15.274Z,61.80
2019-03-11T07:39:15.170Z,62.85
2019-03-11T07:40:15.068Z,63.51
2019-03-11T07:41:14.987Z,63.42
2019-03-11T07:42:14.863Z,63.79
2019-03-11T07:43:14.868Z,65.37
2019-03-11T07:44:14.671Z,65.97
2019-03-11T07:45:14.557Z,66.31
2019-03-11T07:46:14.458Z,65.75
2019-03-11T07:47:14.375Z,65.47
2019-03-11T07:48:14.250Z,66.79
2019-03-11T07:49:14.149Z,65.75
2019-03-11T07:50:14.046Z,65.47
2019-03-11T07:51:13.945Z,65.94
2019-03-11T07:52:13.858Z,65.47
2019-03-11T07:53:13.745Z,66.41
2019-03-11T07:54:13.639Z,65.47
2019-03-11T07:55:13.540Z,67.17
2019-03-11T07:56:13.434Z,66.88
2019-03-11T07:57:13.347Z,66.88
2019-03-11T07:58:13.226Z,67.36
2019-03-11T07:59:13.128Z,66.88
2019-03-11T08:00:13.023Z,67.45
2019-03-11T08:01:12.923Z,66.98
2019-03-11T08:02:12.841Z,67.36
2019-03-11T08:03:12.719Z,67.45
2019-03-11T08:04:12.617Z,67.55
2019-03-11T08:05:12.517Z,68.24
2019-03-11T08:06:18.602Z,68.71
2019-03-11T08:07:12.323Z,69.00
2019-03-11T08:08:12.207Z,68.90
2019-03-11T08:09:12.109Z,68.71
2019-03-11T08:10:12.006Z,69.19
2019-03-11T08:11:11.899Z,68.59
2019-03-11T08:12:11.836Z,68.33
2019-03-11T08:13:11.696Z,68.02
2019-03-11T08:14:11.592Z,68.02
2019-03-11T08:15:11.491Z,67.26
2019-03-11T08:16:11.389Z,67.07
2019-03-11T08:17:11.304Z,66.31
2019-03-11T08:18:11.186Z,65.37
2019-03-11T08:19:11.085Z,65.47
2019-03-11T08:20:10.981Z,65.09
2019-03-11T08:21:10.892Z,64.55
2019-03-11T08:22:10.800Z,64.93
2019-03-11T08:23:10.674Z,65.18
2019-03-11T08:24:10.578Z,65.31
2019-03-11T08:25:10.471Z,65.31
2019-03-11T08:26:10.373Z,65.40
2019-03-11T08:27:10.287Z,65.59
2019-03-11T08:28:10.171Z,65.88
2019-03-11T08:29:10.065Z,65.88
2019-03-11T08:30:09.963Z,66.53
2019-03-11T08:31:09.857Z,66.73
2019-03-11T08:32:09.773Z,67.58
2019-03-11T08:33:09.655Z,67.77
2019-03-11T08:34:09.552Z,67.86
2019-03-11T08:35:09.454Z,69.09
2019-03-11T08:36:09.350Z,69.66
2019-03-11T08:37:09.267Z,69.85
2019-03-11T08:38:09.149Z,70.23
2019-03-11T08:39:09.045Z,70.42
2019-03-11T08:40:08.947Z,72.92
2019-03-11T08:41:08.843Z,71.97
2019-03-11T08:42:08.757Z,72.25
2019-03-11T08:43:08.640Z,72.53
2019-03-11T08:44:08.542Z,73.49
2019-03-11T08:45:08.438Z,73.11
2019-03-11T08:46:08.335Z,72.82
2019-03-11T08:47:08.248Z,73.01
2019-03-11T08:48:08.132Z,73.58
2019-03-11T08:49:08.033Z,73.86
2019-03-11T08:50:07.928Z,73.58
2019-03-11T08:51:07.833Z,73.77
2019-03-11T08:52:07.744Z,74.24
2019-03-11T08:53:07.633Z,74.90
2019-03-11T08:54:07.525Z,74.05
2019-03-11T08:55:07.422Z,74.05
2019-03-11T08:56:07.323Z,74.71
2019-03-11T08:57:07.238Z,74.33
2019-03-11T08:58:07.121Z,74.43
2019-03-11T08:59:07.018Z,74.81
2019-03-11T09:00:07.027Z,74.52
2019-03-11T09:01:06.819Z,74.71
2019-03-11T09:02:06.734Z,74.81
2019-03-11T09:03:06.620Z,74.71
2019-03-11T09:04:06.517Z,74.43
2019-03-11T09:05:06.417Z,75.09
2019-03-11T09:06:06.314Z,74.52
2019-03-11T09:07:06.342Z,74.90
2019-03-11T09:08:06.118Z,75.19
2019-03-11T09:09:06.015Z,74.33
2019-03-11T09:10:05.913Z,74.62
2019-03-11T09:11:05.814Z,74.62
2019-03-11T09:12:05.730Z,74.81
2019-03-11T09:13:05.614Z,74.62
2019-03-11T09:14:05.618Z,74.81
2019-03-11T09:15:05.411Z,73.96
2019-03-11T09:16:05.308Z,74.90
2019-03-11T09:17:05.227Z,74.71
2019-03-11T09:18:05.109Z,74.62
2019-03-11T09:19:05.006Z,74.71
2019-03-11T09:20:04.904Z,74.75
2019-03-11T09:21:05.185Z,75.23
2019-03-11T09:22:04.719Z,76.08
2019-03-11T09:23:04.604Z,76.08
2019-03-11T09:24:04.502Z,76.46
2019-03-11T09:25:04.408Z,76.36
2019-03-11T09:26:04.304Z,75.32
2019-03-11T09:27:04.207Z,76.46
2019-03-11T09:28:04.226Z,75.98
2019-03-11T09:29:04.004Z,75.95
2019-03-11T09:30:03.905Z,76.17
2019-03-11T09:31:03.802Z,77.03
2019-03-11T09:32:03.708Z,76.65
2019-03-11T09:33:03.626Z,77.59
2019-03-11T09:34:03.506Z,77.03
2019-03-11T09:35:03.509Z,79.21
2019-03-11T09:36:03.305Z,79.30
2019-03-11T09:37:03.207Z,78.26
2019-03-11T09:38:04.055Z,79.21
2019-03-11T09:39:03.006Z,78.92
2019-03-11T09:40:02.906Z,78.54
2019-03-11T09:41:02.804Z,78.83
2019-03-11T09:42:02.811Z,79.30
2019-03-11T09:43:02.622Z,79.77
2019-03-11T09:44:02.510Z,79.96
2019-03-11T09:45:02.406Z,79.21
2019-03-11T09:46:02.305Z,81.81
2019-03-11T09:47:02.213Z,81.62
2019-03-11T09:48:02.124Z,83.80
2019-03-11T09:49:02.106Z,82.56
2019-03-11T09:50:01.907Z,82.56
2019-03-11T09:51:01.809Z,83.27
2019-03-11T09:52:01.709Z,85.36
2019-03-11T09:53:01.625Z,85.22
2019-03-11T09:54:01.509Z,83.98
2019-03-11T09:55:01.426Z,83.98
2019-03-11T09:56:01.435Z,85.55
2019-03-11T09:57:01.213Z,88.39
2019-03-11T09:58:01.133Z,85.64
2019-03-11T09:59:01.016Z,85.69
2019-03-11T10:00:00.918Z,87.25
2019-03-11T10:01:00.825Z,86.16
2019-03-11T10:02:00.721Z,85.69
2019-03-11T10:03:00.743Z,86.45
2019-03-11T10:04:00.526Z,85.60
2019-03-11T10:05:00.432Z,88.01
2019-03-11T10:06:00.344Z,87.25
2019-03-11T10:07:00.237Z,88.58
2019-03-11T10:08:00.192Z,88.10
2019-03-11T10:09:00.148Z,88.10
2019-03-11T10:09:59.939Z,89.10
2019-03-11T10:10:59.842Z,91.00
2019-03-11T10:11:59.745Z,89.90
2019-03-11T10:12:59.660Z,89.53
2019-03-11T10:13:59.550Z,90.09
2019-03-11T10:14:59.449Z,89.95
2019-03-11T10:15:59.353Z,89.72
2019-03-11T10:16:59.370Z,90.10
2019-03-11T10:17:59.176Z,91.47
2019-03-11T10:18:59.062Z,91.42
2019-03-11T10:19:58.966Z,88.72
2019-03-11T10:20:58.869Z,90.86
2019-03-11T10:21:58.770Z,91.00
2019-03-11T10:22:58.794Z,89.29
2019-03-11T10:23:59.370Z,89.48
2019-03-11T10:24:58.481Z,89.67
2019-03-11T10:25:58.384Z,90.77
2019-03-11T10:26:58.286Z,89.72
2019-03-11T10:27:58.205Z,89.20
2019-03-11T10:28:58.093Z,89.06
2019-03-11T10:29:57.993Z,90.10
2019-03-11T10:30:57.896Z,88.87
2019-03-11T10:31:57.801Z,91.00
2019-03-11T10:32:57.720Z,90.81
2019-03-11T10:33:57.605Z,89.48
2019-03-11T10:34:57.505Z,90.39
2019-03-11T10:35:57.407Z,90.29
2019-03-11T10:36:57.310Z,89.44
2019-03-11T10:37:57.228Z,89.72
2019-03-11T10:38:57.115Z,90.58
2019-03-11T10:39:57.019Z,89.44
2019-03-11T10:40:56.921Z,89.82
2019-03-11T10:41:56.817Z,89.15
2019-03-11T10:42:56.733Z,88.11
2019-03-11T10:43:56.622Z,88.02
2019-03-11T10:44:56.520Z,88.49
2019-03-11T10:45:56.420Z,88.30
2019-03-11T10:46:56.321Z,89.25
2019-03-11T10:47:56.253Z,88.07
2019-03-11T10:48:56.126Z,87.50
2019-03-11T10:49:56.025Z,89.01
2019-03-11T10:50:56.003Z,89.01
2019-03-11T10:51:55.826Z,89.01
2019-03-11T10:52:55.742Z,88.45
2019-03-11T10:53:55.626Z,88.26
2019-03-11T10:54:55.531Z,88.59
2019-03-11T10:55:55.428Z,89.44
2019-03-11T10:56:55.330Z,87.73
2019-03-11T10:57:55.243Z,90.24
2019-03-11T10:58:55.129Z,92.47
2019-03-11T10:59:55.031Z,91.14
2019-03-11T11:00:54.929Z,89.06
2019-03-11T11:01:54.832Z,91.00
2019-03-11T11:02:54.745Z,90.29
2019-03-11T11:03:54.632Z,90.19
2019-03-11T11:04:54.532Z,89.58
2019-03-11T11:05:54.439Z,90.72
2019-03-11T11:06:54.333Z,89.91
2019-03-11T11:07:54.279Z,90.34
2019-03-11T11:08:54.152Z,90.24
2019-03-11T11:09:54.039Z,88.92
2019-03-11T11:10:53.938Z,90.15
2019-03-11T11:11:53.841Z,89.67
2019-03-11T11:12:53.743Z,90.81
2019-03-11T11:13:53.660Z,91.09
2019-03-11T11:14:53.544Z,90.43
2019-03-11T11:15:53.445Z,91.85
2019-03-11T11:16:53.352Z,91.43
2019-03-11T11:17:53.251Z,91.66
2019-03-11T11:18:53.173Z,92.66
2019-03-11T11:20:02.929Z,91.99
2019-03-11T11:20:52.951Z,90.43
2019-03-11T11:21:52.855Z,91.57
2019-03-11T11:22:52.757Z,92.14
2019-03-11T11:23:52.675Z,92.80
2019-03-11T11:24:52.558Z,92.04
2019-03-11T11:25:52.461Z,91.38
2019-03-11T11:26:52.360Z,92.09
2019-03-11T11:27:52.263Z,91.24
2019-03-11T11:28:52.178Z,92.23
2019-03-11T11:29:52.065Z,93.41
2019-03-11T11:30:51.969Z,94.03
2019-03-11T11:31:51.866Z,92.71
2019-03-11T11:32:51.768Z,92.61
2019-03-11T11:33:51.899Z,94.37
2019-03-11T11:34:51.571Z,92.42
2019-03-11T11:35:51.484Z,92.71
2019-03-11T11:36:51.375Z,92.23
2019-03-11T11:37:51.280Z,93.70
2019-03-11T11:38:51.196Z,92.61
2019-03-11T11:39:51.128Z,92.90
2019-03-11T11:40:50.984Z,93.75
2019-03-11T11:41:50.887Z,93.60
2019-03-11T11:42:50.791Z,94.03
2019-03-11T11:43:50.709Z,92.61
2019-03-11T11:44:50.599Z,93.46
2019-03-11T11:45:50.500Z,92.99
2019-03-11T11:46:50.399Z,94.08
2019-03-11T11:47:50.307Z,93.70
2019-03-11T11:48:50.253Z,93.37
2019-03-11T11:49:50.109Z,93.08
2019-03-11T11:50:50.011Z,92.76
2019-03-11T11:51:49.917Z,94.56
2019-03-11T11:52:49.822Z,94.46
2019-03-11T11:53:49.737Z,94.27
2019-03-11T11:54:49.624Z,93.27
2019-03-11T11:55:57.327Z,95.36
2019-03-11T11:56:49.432Z,95.55
2019-03-11T11:57:49.344Z,94.23
2019-03-11T11:58:49.255Z,93.27
2019-03-11T11:59:53.975Z,94.13
2019-03-11T12:00:49.054Z,94.18
2019-03-11T12:01:49.051Z,93.42
2019-03-11T12:02:48.843Z,93.70
2019-03-11T12:03:48.798Z,92.94
2019-03-11T12:04:48.649Z,91.14
2019-03-11T12:05:48.564Z,87.73
2019-03-11T12:06:48.452Z,90.53
2019-03-11T12:07:48.356Z,89.77
2019-03-11T12:08:48.359Z,90.24
2019-03-11T12:09:48.174Z,89.86
2019-03-11T12:10:48.059Z,92.28
2019-03-11T12:11:47.972Z,89.86
2019-03-11T12:12:47.858Z,90.91
2019-03-11T12:13:47.764Z,88.16
2019-03-11T12:14:47.679Z,90.76
2019-03-11T12:15:47.673Z,89.11
2019-03-11T12:16:47.468Z,88.63
2019-03-11T12:17:47.433Z,88.82
2019-03-11T12:18:47.271Z,87.59
2019-03-11T12:19:47.189Z,87.49
2019-03-11T12:20:47.073Z,88.59
2019-03-11T12:21:46.973Z,89.63
2019-03-11T12:22:46.984Z,88.11
2019-03-11T12:23:46.980Z,86.98
2019-03-11T12:24:46.694Z,86.98
2019-03-11T12:25:46.583Z,86.79
2019-03-11T12:26:46.486Z,87.07
2019-03-11T12:27:53.853Z,87.26
2019-03-11T12:28:46.284Z,86.98
2019-03-11T12:29:46.299Z,85.74
2019-03-11T12:30:46.089Z,86.22
2019-03-11T12:31:45.988Z,86.31
2019-03-11T12:32:45.888Z,86.83
2019-03-11T12:33:45.786Z,88.59
2019-03-11T12:34:45.705Z,88.02
2019-03-11T12:35:45.592Z,88.06
2019-03-11T12:36:45.593Z,87.07
2019-03-11T12:37:45.392Z,87.83
2019-03-11T12:38:45.292Z,86.12
2019-03-11T12:39:45.211Z,87.83
2019-03-11T12:40:45.099Z,87.26
2019-03-11T12:41:45.016Z,87.07
2019-03-11T12:42:44.895Z,87.07
2019-03-11T12:43:44.902Z,87.26
2019-03-11T12:44:44.778Z,87.16
2019-03-11T12:45:44.598Z,88.21
2019-03-11T12:46:44.501Z,88.59
2019-03-11T12:47:44.404Z,88.02
2019-03-11T12:48:44.299Z,88.40
2019-03-11T12:49:44.215Z,86.88
2019-03-11T12:50:44.208Z,89.06